Time;durP1;ratioP1;P1;durP2;ratioP2;P2;SDS_P1;SDS_P2;PMS_P1;PMS_P2;Temp;Humidity;BMP_temperature;BMP_pressure;BME280_temperature;BME280_humidity;BME280_pressure;Samples;Min_cycle;Max_cycle;Signal;HPM_P1;HPM_P2
2021/07/07 00:00:55;;;;;;;4.25;0.52;;;18.40;99.90;;;;;;5071209;28;20063;-66
2021/07/07 00:03:21;;;;;;;4.78;0.50;;;18.40;99.90;;;;;;5071201;28;20027;-67
2021/07/07 00:05:47;;;;;;;3.40;0.50;;;18.40;99.90;;;;;;5070718;28;20032;-67
2021/07/07 00:08:12;;;;;;;2.60;0.52;;;18.40;99.90;;;;;;5071473;28;20032;-67
2021/07/07 00:10:38;;;;;;;3.03;0.93;;;18.30;99.90;;;;;;5070801;28;20036;-67
2021/07/07 00:13:04;;;;;;;5.32;0.60;;;18.40;99.90;;;;;;5071063;28;20128;-67
2021/07/07 00:15:32;;;;;;;3.33;0.70;;;18.40;99.90;;;;;;5070549;28;20497;-74
2021/07/07 00:18:02;;;;;;;4.53;0.70;;;18.40;99.90;;;;;;5071257;28;20116;-66
2021/07/07 00:20:33;;;;;;;5.45;0.57;;;18.30;99.90;;;;;;5070948;28;20035;-68
2021/07/07 00:22:59;;;;;;;1.42;0.40;;;18.20;99.90;;;;;;5072553;28;20407;-66
2021/07/07 00:25:25;;;;;;;1.33;0.52;;;18.30;99.90;;;;;;5070794;28;20052;-68
2021/07/07 00:27:51;;;;;;;2.75;0.30;;;18.30;99.90;;;;;;5070264;28;20029;-67
2021/07/07 00:30:16;;;;;;;2.25;0.57;;;18.30;99.90;;;;;;5070746;28;20029;-67
2021/07/07 00:32:42;;;;;;;2.10;0.50;;;18.30;99.90;;;;;;5069766;28;20181;-68
2021/07/07 00:35:08;;;;;;;3.30;0.90;;;18.30;99.90;;;;;;5072485;28;20029;-68
2021/07/07 00:37:34;;;;;;;4.70;0.77;;;18.20;99.90;;;;;;5070019;28;20039;-69
2021/07/07 00:39:59;;;;;;;1.70;0.55;;;18.10;99.90;;;;;;5072041;28;20025;-68
2021/07/07 00:42:25;;;;;;;8.23;0.80;;;18.10;99.90;;;;;;5071751;28;20029;-67
2021/07/07 00:44:51;;;;;;;4.07;0.60;;;18.10;99.90;;;;;;5071367;28;20301;-67
2021/07/07 00:47:16;;;;;;;2.70;1.00;;;18.00;99.90;;;;;;5071957;28;20056;-68
2021/07/07 00:49:42;;;;;;;3.10;1.00;;;18.00;99.90;;;;;;5071076;28;20056;-68
2021/07/07 00:52:09;;;;;;;4.13;0.60;;;18.00;99.90;;;;;;5070408;28;20032;-67
2021/07/07 00:54:36;;;;;;;2.08;0.68;;;18.00;99.90;;;;;;5069703;28;20047;-67
2021/07/07 00:57:02;;;;;;;4.13;0.70;;;18.10;99.90;;;;;;5071916;28;20032;-67
2021/07/07 00:59:29;;;;;;;2.22;0.47;;;17.90;99.90;;;;;;5070284;28;20063;-67
2021/07/07 01:01:56;;;;;;;5.25;0.63;;;17.90;99.90;;;;;;5069621;28;20409;-67
2021/07/07 01:04:22;;;;;;;3.10;0.70;;;17.90;99.90;;;;;;5069647;28;20029;-68
2021/07/07 01:06:47;;;;;;;3.15;0.40;;;17.90;99.90;;;;;;5069581;28;20105;-67
2021/07/07 01:09:13;;;;;;;8.07;1.30;;;17.80;99.90;;;;;;5071466;28;20147;-66
2021/07/07 01:11:39;;;;;;;3.90;0.80;;;17.80;99.90;;;;;;5070942;28;20446;-66
2021/07/07 01:14:04;;;;;;;3.60;0.68;;;17.80;99.90;;;;;;5071683;28;20071;-66
2021/07/07 01:16:30;;;;;;;3.90;0.73;;;17.80;99.90;;;;;;5070009;28;20520;-66
2021/07/07 01:18:57;;;;;;;7.47;1.17;;;17.80;99.90;;;;;;5069404;28;20028;-67
2021/07/07 01:21:23;;;;;;;2.88;0.65;;;17.70;99.90;;;;;;5069821;28;20072;-67
2021/07/07 01:23:50;;;;;;;1.75;0.50;;;17.70;99.90;;;;;;5068837;28;20061;-68
2021/07/07 01:26:16;;;;;;;4.00;0.57;;;17.60;99.90;;;;;;5070027;28;20451;-67
2021/07/07 01:28:41;;;;;;;1.45;0.73;;;17.60;99.90;;;;;;5069346;28;20029;-68
2021/07/07 01:31:07;;;;;;;3.00;0.70;;;17.50;99.90;;;;;;5071146;28;20496;-67
2021/07/07 01:33:34;;;;;;;1.55;0.50;;;17.60;99.90;;;;;;5069746;28;20038;-67
2021/07/07 01:35:59;;;;;;;3.92;0.52;;;17.60;99.90;;;;;;5069674;28;20047;-68
2021/07/07 01:38:25;;;;;;;5.72;0.57;;;17.50;99.90;;;;;;5069529;28;20461;-67
2021/07/07 01:40:54;;;;;;;1.05;0.50;;;17.50;99.90;;;;;;5070567;28;20436;-67
2021/07/07 01:43:19;;;;;;;2.88;0.65;;;17.50;99.90;;;;;;5069796;28;20141;-67
2021/07/07 01:45:45;;;;;;;2.60;1.17;;;17.50;99.90;;;;;;5070239;28;20465;-68
2021/07/07 01:48:10;;;;;;;3.33;0.52;;;17.50;99.90;;;;;;5069857;28;20096;-67
2021/07/07 01:50:36;;;;;;;5.68;0.93;;;17.50;99.90;;;;;;5070080;28;20421;-67
2021/07/07 01:53:02;;;;;;;1.45;0.60;;;17.60;99.90;;;;;;5071012;28;20029;-69
2021/07/07 01:55:27;;;;;;;2.28;0.40;;;17.60;99.90;;;;;;5069938;28;20433;-69
2021/07/07 01:57:54;;;;;;;8.60;0.60;;;17.50;99.90;;;;;;5070651;28;20029;-67
2021/07/07 02:00:26;;;;;;;5.65;0.52;;;17.50;99.90;;;;;;5069730;28;20069;-67
2021/07/07 02:02:53;;;;;;;1.33;0.40;;;17.60;99.90;;;;;;5068961;28;20063;-67
2021/07/07 02:05:22;;;;;;;4.25;0.52;;;17.60;99.90;;;;;;5069466;28;20419;-67
2021/07/07 02:07:48;;;;;;;1.77;0.68;;;17.50;99.90;;;;;;5070188;28;20021;-68
2021/07/07 02:10:15;;;;;;;1.25;0.30;;;17.50;99.90;;;;;;5070852;28;20055;-67
2021/07/07 02:12:42;;;;;;;1.88;0.45;;;17.50;99.90;;;;;;5070358;28;20035;-66
2021/07/07 02:15:13;;;;;;;1.23;0.57;;;17.60;99.90;;;;;;5070968;28;20105;-66
2021/07/07 02:17:40;;;;;;;2.50;0.40;;;17.50;99.90;;;;;;5073124;28;20470;-69
2021/07/07 02:20:09;;;;;;;1.75;0.40;;;17.50;99.90;;;;;;5073523;28;20070;-68
2021/07/07 02:22:37;;;;;;;2.63;0.88;;;17.60;99.90;;;;;;5074876;28;20028;-67
2021/07/07 02:25:05;;;;;;;2.35;0.63;;;17.40;99.90;;;;;;5057746;28;20041;-68
2021/07/07 02:27:31;;;;;;;1.90;0.50;;;17.40;99.90;;;;;;5055022;28;20166;-68
2021/07/07 02:29:57;;;;;;;7.72;0.95;;;17.40;99.90;;;;;;5036011;28;20366;-68
2021/07/07 02:32:22;;;;;;;2.40;0.68;;;17.30;99.90;;;;;;5036587;28;20044;-66
2021/07/07 02:34:48;;;;;;;1.30;0.40;;;17.30;99.90;;;;;;5035963;28;20150;-67
2021/07/07 02:37:14;;;;;;;2.75;0.45;;;17.40;99.90;;;;;;5054617;28;20029;-67
2021/07/07 02:39:39;;;;;;;3.97;0.77;;;17.40;99.90;;;;;;5035791;28;20052;-68
2021/07/07 02:42:05;;;;;;;3.85;0.80;;;17.30;99.90;;;;;;5054716;28;20143;-67
2021/07/07 02:44:31;;;;;;;2.40;0.77;;;17.30;99.90;;;;;;5054258;28;20100;-67
2021/07/07 02:46:56;;;;;;;4.57;1.52;;;17.30;99.90;;;;;;5035672;28;20074;-69
2021/07/07 02:49:22;;;;;;;3.90;0.65;;;17.30;99.90;;;;;;5036196;28;20071;-67
2021/07/07 02:51:47;;;;;;;3.78;0.50;;;17.30;99.90;;;;;;5053255;28;20064;-69
2021/07/07 02:54:13;;;;;;;2.47;0.60;;;17.30;99.90;;;;;;5036235;28;20119;-67
2021/07/07 02:56:39;;;;;;;5.72;0.70;;;17.30;99.90;;;;;;5053431;28;20025;-72
2021/07/07 02:59:05;;;;;;;4.80;1.05;;;17.40;99.90;;;;;;5054083;28;20032;-67
2021/07/07 03:01:30;;;;;;;2.35;0.70;;;17.30;99.90;;;;;;5053707;28;20029;-67
2021/07/07 03:03:56;;;;;;;5.57;0.68;;;17.30;99.90;;;;;;5035500;28;20382;-68
2021/07/07 03:06:22;;;;;;;1.88;0.73;;;17.20;99.90;;;;;;5054372;28;20086;-68
2021/07/07 03:08:47;;;;;;;2.63;0.57;;;17.10;99.90;;;;;;5035423;28;20528;-68
2021/07/07 03:11:13;;;;;;;3.08;0.60;;;17.20;99.90;;;;;;5035998;28;20163;-66
2021/07/07 03:13:38;;;;;;;4.70;0.68;;;17.20;99.90;;;;;;5035822;28;20508;-68
2021/07/07 03:16:04;;;;;;;10.50;1.08;;;17.10;99.90;;;;;;5035286;28;20029;-67
2021/07/07 03:18:30;;;;;;;3.05;0.57;;;17.10;99.90;;;;;;5035861;28;20029;-67
2021/07/07 03:20:56;;;;;;;2.55;0.63;;;17.10;99.90;;;;;;5034882;28;20074;-68
2021/07/07 03:23:24;;;;;;;2.28;0.47;;;17.10;99.90;;;;;;5053469;28;20056;-68
2021/07/07 03:25:51;;;;;;;4.25;0.70;;;17.00;99.90;;;;;;5035246;28;20029;-68
2021/07/07 03:28:18;;;;;;;2.70;0.70;;;17.10;99.90;;;;;;5053429;28;20048;-69
2021/07/07 03:30:44;;;;;;;4.32;0.93;;;17.10;99.90;;;;;;5052766;28;20068;-69
2021/07/07 03:33:10;;;;;;;3.15;0.70;;;17.10;99.90;;;;;;5053335;28;20087;-69
2021/07/07 03:35:36;;;;;;;1.45;0.50;;;17.10;99.90;;;;;;5053451;28;20032;-68
2021/07/07 03:38:03;;;;;;;3.17;0.73;;;17.10;99.90;;;;;;5034930;28;20377;-67
2021/07/07 03:40:30;;;;;;;4.53;0.80;;;17.10;99.90;;;;;;5035452;28;20037;-68
2021/07/07 03:42:57;;;;;;;2.40;0.60;;;17.10;99.90;;;;;;5053107;28;20064;-67
2021/07/07 03:45:23;;;;;;;1.92;0.85;;;17.00;99.90;;;;;;5035174;28;20029;-68
2021/07/07 03:47:49;;;;;;;1.95;0.60;;;17.10;99.90;;;;;;5052216;28;20028;-67
2021/07/07 03:50:16;;;;;;;5.28;0.75;;;17.00;99.90;;;;;;5052436;28;20029;-67
2021/07/07 03:52:42;;;;;;;4.82;1.05;;;17.00;99.90;;;;;;5035066;28;20079;-68
2021/07/07 03:55:13;;;;;;;3.80;0.73;;;17.00;99.90;;;;;;5052715;28;20029;-68
2021/07/07 03:57:38;;;;;;;2.95;0.52;;;17.10;99.90;;;;;;5053170;28;20127;-67
2021/07/07 04:00:14;;;;;;;5.47;0.88;;;17.10;99.90;;;;;;5052006;28;20032;-67
2021/07/07 04:02:40;;;;;;;2.67;0.65;;;17.20;99.90;;;;;;5052864;28;20029;-67
2021/07/07 04:05:07;;;;;;;3.17;0.73;;;17.20;99.90;;;;;;5034595;28;20025;-68
2021/07/07 04:07:33;;;;;;;3.70;0.40;;;17.20;99.90;;;;;;5052639;28;20062;-66
2021/07/07 04:09:59;;;;;;;1.58;0.50;;;17.20;99.90;;;;;;5034007;28;20115;-66
2021/07/07 04:12:25;;;;;;;1.58;0.50;;;17.20;99.90;;;;;;5034951;28;20147;-66
2021/07/07 04:14:50;;;;;;;3.10;0.60;;;17.20;99.90;;;;;;5034222;28;20044;-67
2021/07/07 04:17:16;;;;;;;3.05;1.00;;;17.20;99.90;;;;;;5034347;28;20033;-68
2021/07/07 04:19:42;;;;;;;1.63;0.63;;;17.20;99.90;;;;;;5052485;28;20035;-68
2021/07/07 04:22:07;;;;;;;4.40;0.70;;;17.20;99.90;;;;;;5033803;28;20111;-67
2021/07/07 04:24:33;;;;;;;5.35;0.70;;;17.20;99.90;;;;;;5055899;28;20052;-67
2021/07/07 04:26:59;;;;;;;3.35;0.73;;;17.30;99.90;;;;;;5071507;28;20517;-67
2021/07/07 04:29:24;;;;;;;3.75;0.60;;;17.20;99.90;;;;;;5072160;28;20166;-68
2021/07/07 04:31:53;;;;;;;3.03;1.00;;;17.20;99.90;;;;;;5071242;28;20606;-68
2021/07/07 04:34:19;;;;;;;4.28;0.88;;;17.20;99.90;;;;;;5070772;28;20051;-68
2021/07/07 04:36:45;;;;;;;8.05;1.00;;;17.20;99.90;;;;;;5070660;28;20048;-75
2021/07/07 04:39:11;;;;;;;3.13;0.68;;;17.30;99.90;;;;;;5070375;28;20472;-68
2021/07/07 04:41:36;;;;;;;3.28;0.52;;;17.30;99.90;;;;;;5070319;28;20029;-68
2021/07/07 04:44:03;;;;;;;2.55;0.77;;;17.30;99.90;;;;;;5071367;28;20029;-67
2021/07/07 04:46:29;;;;;;;2.38;0.88;;;17.30;99.90;;;;;;5070572;28;20119;-68
2021/07/07 04:48:54;;;;;;;5.90;1.20;;;17.30;99.90;;;;;;5070762;28;20107;-67
2021/07/07 04:51:20;;;;;;;4.32;1.00;;;17.30;99.90;;;;;;5071264;28;20040;-69
2021/07/07 04:53:46;;;;;;;1.42;0.60;;;17.30;99.90;;;;;;5069867;28;20040;-73
2021/07/07 04:56:12;;;;;;;5.82;1.70;;;17.30;99.90;;;;;;5071469;28;20032;-68
2021/07/07 04:58:40;;;;;;;3.70;0.63;;;17.30;99.90;;;;;;5071612;28;20109;-69
2021/07/07 05:01:06;;;;;;;2.03;0.68;;;17.30;99.90;;;;;;5069672;28;20359;-68
2021/07/07 05:03:31;;;;;;;3.38;0.63;;;17.30;99.90;;;;;;5070554;28;20089;-69
2021/07/07 05:05:57;;;;;;;1.65;0.70;;;17.40;99.90;;;;;;5070885;28;20419;-68
2021/07/07 05:08:23;;;;;;;5.55;0.63;;;17.40;99.90;;;;;;5070587;28;20604;-68
2021/07/07 05:10:48;;;;;;;5.65;0.75;;;17.40;99.90;;;;;;5071141;28;20115;-70
2021/07/07 05:13:16;;;;;;;3.47;0.75;;;17.40;99.90;;;;;;5071427;28;20039;-69
2021/07/07 05:15:41;;;;;;;7.90;1.85;;;17.40;99.90;;;;;;5071243;28;20036;-66
2021/07/07 05:18:07;;;;;;;2.08;0.80;;;17.30;99.90;;;;;;5070829;28;20107;-67
2021/07/07 05:20:33;;;;;;;10.93;0.98;;;17.40;99.90;;;;;;5071213;28;20052;-67
2021/07/07 05:23:06;;;;;;;4.10;0.85;;;17.40;99.90;;;;;;5069275;28;20116;-67
2021/07/07 05:25:32;;;;;;;6.40;1.00;;;17.50;99.90;;;;;;5069465;28;20040;-66
2021/07/07 05:27:58;;;;;;;3.90;0.82;;;17.40;99.90;;;;;;5068825;28;20031;-68
2021/07/07 05:30:25;;;;;;;4.90;1.02;;;17.50;99.90;;;;;;5070714;28;20032;-67
2021/07/07 05:32:51;;;;;;;6.28;1.70;;;17.60;99.90;;;;;;5069993;28;20427;-67
2021/07/07 05:35:17;;;;;;;5.55;1.45;;;17.50;99.90;;;;;;5070917;28;20422;-68
2021/07/07 05:37:43;;;;;;;4.32;1.20;;;17.50;99.90;;;;;;5070494;28;20056;-68
2021/07/07 05:40:10;;;;;;;7.90;1.70;;;17.50;99.90;;;;;;5068498;28;20400;-67
2021/07/07 05:42:36;;;;;;;7.85;1.10;;;17.40;99.90;;;;;;5070755;28;20025;-67
2021/07/07 05:45:02;;;;;;;2.83;1.40;;;17.30;99.90;;;;;;5070505;28;20032;-69
2021/07/07 05:47:27;;;;;;;2.17;0.77;;;17.30;99.90;;;;;;5070433;28;20438;-69
2021/07/07 05:49:56;;;;;;;4.20;1.10;;;17.20;99.90;;;;;;5068093;28;20064;-69
2021/07/07 05:52:22;;;;;;;2.55;1.00;;;17.10;99.90;;;;;;5069917;28;20044;-67
2021/07/07 05:54:48;;;;;;;2.63;1.13;;;17.30;99.90;;;;;;5070359;28;20430;-68
2021/07/07 05:57:13;;;;;;;7.70;1.20;;;17.40;99.90;;;;;;5067692;28;20032;-68
2021/07/07 05:59:39;;;;;;;3.40;0.82;;;17.60;99.90;;;;;;5070629;28;20070;-68
2021/07/07 06:02:05;;;;;;;8.68;1.73;;;17.70;99.90;;;;;;5070939;28;20033;-68
2021/07/07 06:04:30;;;;;;;4.18;0.82;;;17.70;99.90;;;;;;5069201;28;20024;-68
2021/07/07 06:06:56;;;;;;;2.03;0.80;;;17.80;99.90;;;;;;5069470;28;20020;-70
2021/07/07 06:09:22;;;;;;;4.95;1.13;;;17.80;99.90;;;;;;5068779;28;20025;-68
2021/07/07 06:11:47;;;;;;;4.82;1.73;;;17.90;99.90;;;;;;5068829;28;20025;-67
2021/07/07 06:14:13;;;;;;;2.55;1.23;;;17.90;99.90;;;;;;5069640;28;20079;-67
2021/07/07 06:16:39;;;;;;;4.22;0.70;;;17.90;99.90;;;;;;5068884;28;20061;-68
2021/07/07 06:19:04;;;;;;;5.55;0.90;;;18.00;99.90;;;;;;5068665;28;20048;-68
2021/07/07 06:21:31;;;;;;;8.75;1.17;;;18.00;99.90;;;;;;5068579;28;20129;-69
2021/07/07 06:23:57;;;;;;;1.75;0.93;;;18.00;99.90;;;;;;5067935;28;20523;-68
2021/07/07 06:26:28;;;;;;;3.03;0.82;;;18.00;99.90;;;;;;5068545;28;20162;-68
2021/07/07 06:28:53;;;;;;;6.20;1.20;;;18.00;99.90;;;;;;5068128;28;20028;-69
2021/07/07 06:31:19;;;;;;;3.30;0.88;;;18.10;99.90;;;;;;5068325;28;20115;-68
2021/07/07 06:33:44;;;;;;;3.53;1.02;;;18.10;99.90;;;;;;5067934;28;20056;-70
2021/07/07 06:36:10;;;;;;;2.70;1.33;;;18.20;99.90;;;;;;5067560;28;20024;-70
2021/07/07 06:38:36;;;;;;;5.22;1.13;;;18.30;99.90;;;;;;5073232;28;20364;-72
2021/07/07 06:41:02;;;;;;;5.40;0.73;;;18.30;99.90;;;;;;5075211;28;20038;-71
2021/07/07 06:43:27;;;;;;;4.10;1.13;;;18.30;99.90;;;;;;5080404;28;20467;-68
2021/07/07 06:45:53;;;;;;;2.03;0.90;;;18.40;99.90;;;;;;5087490;28;20028;-77
2021/07/07 06:48:19;;;;;;;5.45;0.68;;;18.40;99.90;;;;;;5087674;28;20028;-72
2021/07/07 06:50:45;;;;;;;5.30;1.20;;;18.60;99.90;;;;;;5068034;28;20040;-72
2021/07/07 06:53:11;;;;;;;2.40;0.85;;;19.00;99.90;;;;;;5064971;28;20035;-69
2021/07/07 06:55:37;;;;;;;10.02;1.38;;;19.20;99.90;;;;;;5066764;28;20036;-72
2021/07/07 06:58:05;;;;;;;17.27;3.03;;;19.40;99.90;;;;;;5066774;28;20032;-68
2021/07/07 07:00:31;;;;;;;3.45;1.02;;;19.20;99.90;;;;;;5065672;28;20079;-69
2021/07/07 07:02:57;;;;;;;3.42;0.82;;;19.10;99.90;;;;;;5068632;28;20066;-68
2021/07/07 07:05:23;;;;;;;5.88;1.75;;;19.10;99.90;;;;;;5082569;28;20092;-71
2021/07/07 07:07:49;;;;;;;4.68;1.10;;;19.00;99.90;;;;;;5070912;28;20377;-76
2021/07/07 07:10:15;;;;;;;4.05;1.30;;;18.90;99.90;;;;;;5067931;28;20032;-75
2021/07/07 07:12:42;;;;;;;2.65;1.13;;;18.90;99.90;;;;;;5070306;28;20745;-75
2021/07/07 07:15:11;;;;;;;6.57;1.40;;;18.80;99.90;;;;;;5083630;28;20108;-75
2021/07/07 07:17:38;;;;;;;7.50;1.50;;;18.80;99.90;;;;;;5090032;28;20043;-74
2021/07/07 07:20:05;;;;;;;3.83;1.10;;;18.70;99.90;;;;;;5073832;28;20055;-73
2021/07/07 07:22:31;;;;;;;5.55;1.20;;;18.80;99.90;;;;;;5069847;28;20043;-74
2021/07/07 07:24:57;;;;;;;2.20;0.98;;;18.90;99.90;;;;;;5069214;28;20052;-75
2021/07/07 07:27:23;;;;;;;1.67;0.77;;;18.90;99.90;;;;;;5069505;28;20052;-73
2021/07/07 07:29:49;;;;;;;7.32;1.27;;;19.00;99.90;;;;;;5071005;28;20149;-75
2021/07/07 07:32:15;;;;;;;4.15;1.10;;;19.10;99.90;;;;;;5069281;28;20402;-74
2021/07/07 07:34:41;;;;;;;6.28;1.20;;;19.00;99.90;;;;;;5071297;28;20144;-75
2021/07/07 07:37:09;;;;;;;3.88;0.95;;;18.90;99.90;;;;;;5068970;28;20540;-73
2021/07/07 07:39:45;;;;;;;4.45;0.90;;;18.70;99.90;;;;;;5069660;28;20414;-76
2021/07/07 07:42:13;;;;;;;4.05;0.80;;;18.80;99.90;;;;;;5069338;28;20335;-73
2021/07/07 07:44:39;;;;;;;5.82;0.80;;;18.60;99.90;;;;;;5069730;28;20024;-74
2021/07/07 07:47:05;;;;;;;3.55;0.85;;;18.60;99.90;;;;;;5070914;28;20090;-73
2021/07/07 07:49:31;;;;;;;1.60;0.75;;;18.60;99.90;;;;;;5069758;28;20029;-74
2021/07/07 07:51:57;;;;;;;4.60;1.30;;;18.80;99.90;;;;;;5071123;28;20089;-73
2021/07/07 07:54:23;;;;;;;3.72;1.45;;;19.00;99.90;;;;;;5070950;28;20041;-72
2021/07/07 07:56:50;;;;;;;2.58;0.73;;;19.10;99.90;;;;;;5069235;28;20431;-72
2021/07/07 07:59:16;;;;;;;2.35;0.70;;;19.30;99.90;;;;;;5068431;28;20134;-74
2021/07/07 08:01:41;;;;;;;4.13;1.08;;;19.40;99.90;;;;;;5069775;28;20383;-75
2021/07/07 08:04:08;;;;;;;6.78;1.30;;;19.50;99.90;;;;;;5070404;28;20487;-74
2021/07/07 08:06:34;;;;;;;4.75;1.70;;;19.80;99.90;;;;;;5069528;28;20025;-75
2021/07/07 08:09:01;;;;;;;2.67;0.60;;;19.70;99.90;;;;;;5068843;28;20025;-75
2021/07/07 08:11:26;;;;;;;3.60;0.85;;;20.00;99.90;;;;;;5070579;28;20098;-73
2021/07/07 08:13:53;;;;;;;2.60;0.93;;;20.00;99.90;;;;;;5069498;28;20412;-71
2021/07/07 08:16:20;;;;;;;4.07;0.70;;;20.20;99.90;;;;;;5068693;28;20081;-74
2021/07/07 08:18:47;;;;;;;8.50;1.83;;;20.20;99.90;;;;;;5068649;28;20072;-76
2021/07/07 08:21:12;;;;;;;2.95;0.90;;;20.30;99.90;;;;;;5069916;28;20743;-75
2021/07/07 08:23:38;;;;;;;3.08;1.20;;;20.80;99.90;;;;;;5062853;28;20104;-73
2021/07/07 08:26:04;;;;;;;8.57;1.52;;;20.80;99.90;;;;;;5030268;28;20029;-74
2021/07/07 08:28:30;;;;;;;5.80;1.20;;;20.90;99.90;;;;;;5032656;28;20025;-73
2021/07/07 08:30:56;;;;;;;1.88;0.60;;;21.10;99.90;;;;;;5030963;28;20571;-71
2021/07/07 08:33:22;;;;;;;5.18;1.63;;;21.40;99.90;;;;;;5031588;28;20061;-71
2021/07/07 08:35:48;;;;;;;5.00;1.05;;;21.60;99.90;;;;;;5031927;28;20516;-73
2021/07/07 08:38:14;;;;;;;5.53;1.15;;;21.50;99.90;;;;;;5050036;28;20025;-73
2021/07/07 08:40:40;;;;;;;7.10;1.63;;;21.70;99.90;;;;;;5040385;28;20032;-73
2021/07/07 08:43:06;;;;;;;6.25;1.08;;;21.80;99.90;;;;;;5050707;28;20029;-71
2021/07/07 08:45:33;;;;;;;4.00;1.30;;;21.90;99.90;;;;;;5050503;28;20032;-73
2021/07/07 08:47:59;;;;;;;2.47;1.33;;;22.10;99.90;;;;;;5050328;28;20024;-73
2021/07/07 08:50:28;;;;;;;3.33;1.40;;;22.00;99.90;;;;;;5032938;28;20029;-71
2021/07/07 08:53:05;;;;;;;4.88;1.25;;;22.20;99.90;;;;;;5030812;28;20041;-62
2021/07/07 08:55:32;;;;;;;4.40;1.30;;;22.50;99.90;;;;;;5050298;28;20175;-56
2021/07/07 08:57:58;;;;;;;4.68;1.30;;;22.60;99.90;;;;;;5063153;28;20037;-57
2021/07/07 09:00:39;;;;;;;4.35;1.40;;;22.70;99.90;;;;;;5030897;28;20039;-57
2021/07/07 09:03:12;;;;;;;9.77;1.35;;;22.80;99.90;;;;;;5022988;28;20029;-58
2021/07/07 09:05:58;;;;;;;8.88;1.73;;;22.70;99.90;;;;;;5030385;28;20040;-57
2021/07/07 09:08:36;;;;;;;5.78;1.60;;;22.90;99.90;;;;;;5030180;28;20025;-54
2021/07/07 09:11:20;;;;;;;2.75;1.65;;;23.00;99.90;;;;;;5028279;28;20040;-56
2021/07/07 09:14:12;;;;;;;3.70;1.10;;;23.20;99.90;;;;;;5030896;28;20124;-59
2021/07/07 09:16:52;;;;;;;2.10;1.67;;;23.40;99.90;;;;;;5031244;28;20470;-54
2021/07/07 09:19:20;;;;;;;7.10;1.55;;;23.60;99.90;;;;;;5030320;28;20051;-55
2021/07/07 09:21:52;;;;;;;4.22;1.40;;;23.60;99.90;;;;;;5049346;28;20086;-56
2021/07/07 09:24:24;;;;;;;16.70;2.45;;;23.30;99.90;;;;;;5046935;28;20130;-56
2021/07/07 09:27:16;;;;;;;8.50;2.40;;;23.50;99.80;;;;;;5067446;28;20044;-56
2021/07/07 09:29:52;;;;;;;4.55;1.75;;;23.50;99.90;;;;;;5067392;28;20466;-54
2021/07/07 09:32:28;;;;;;;9.07;2.22;;;23.60;99.70;;;;;;5069083;28;20035;-58
2021/07/07 09:35:01;;;;;;;5.60;1.80;;;23.60;99.90;;;;;;5067875;28;20063;-65
2021/07/07 09:37:34;;;;;;;7.80;2.33;;;23.60;99.50;;;;;;5067335;28;20024;-55
2021/07/07 09:40:00;;;;;;;4.88;1.27;;;23.40;99.60;;;;;;5068419;28;20024;-54
2021/07/07 09:42:32;;;;;;;5.00;1.73;;;23.80;99.00;;;;;;5068142;28;20557;-55
2021/07/07 09:44:59;;;;;;;5.05;1.83;;;24.10;99.20;;;;;;5069070;28;20063;-57
2021/07/07 09:47:27;;;;;;;7.90;1.90;;;24.10;98.80;;;;;;5069026;28;20012;-56
2021/07/07 09:49:53;;;;;;;6.40;2.00;;;23.90;99.40;;;;;;5067118;28;20050;-64
2021/07/07 09:52:31;;;;;;;4.97;1.98;;;23.50;99.10;;;;;;5066703;28;20048;-61
2021/07/07 09:54:58;;;;;;;3.70;1.63;;;23.50;99.30;;;;;;5067252;28;20398;-56
2021/07/07 09:57:24;;;;;;;5.05;1.42;;;23.40;99.20;;;;;;5069324;28;20482;-54
2021/07/07 09:59:50;;;;;;;5.95;1.98;;;23.40;98.40;;;;;;5067116;28;20086;-54
2021/07/07 10:02:16;;;;;;;6.35;1.60;;;23.70;98.30;;;;;;5066935;28;20107;-54
2021/07/07 10:04:43;;;;;;;4.25;1.55;;;24.10;98.90;;;;;;5067293;28;20032;-54
2021/07/07 10:07:13;;;;;;;4.78;2.03;;;24.10;97.50;;;;;;5065706;28;20060;-57
2021/07/07 10:09:43;;;;;;;5.47;1.70;;;23.90;98.30;;;;;;5068641;28;20063;-54
2021/07/07 10:12:09;;;;;;;5.38;1.85;;;23.90;98.00;;;;;;5066266;28;20039;-55
2021/07/07 10:14:36;;;;;;;5.45;1.17;;;24.50;98.20;;;;;;5069077;28;20021;-54
2021/07/07 10:17:02;;;;;;;5.80;1.70;;;24.70;96.50;;;;;;5066221;28;20081;-60
2021/07/07 10:19:29;;;;;;;5.97;1.77;;;24.60;97.20;;;;;;5068103;28;20124;-56
2021/07/07 10:21:56;;;;;;;7.40;1.50;;;24.60;97.10;;;;;;5066384;28;20036;-65
2021/07/07 10:24:31;;;;;;;3.22;1.15;;;24.60;97.10;;;;;;5066074;28;20057;-54
2021/07/07 10:27:01;;;;;;;4.90;1.40;;;24.30;97.00;;;;;;5066293;28;20029;-68
2021/07/07 10:29:29;;;;;;;10.93;2.00;;;24.00;97.90;;;;;;5066884;28;20028;-56
2021/07/07 10:32:00;;;;;;;5.72;1.13;;;24.30;96.10;;;;;;5066614;28;20032;-61
2021/07/07 10:34:28;;;;;;;5.93;1.23;;;24.70;95.10;;;;;;5069177;28;20379;-54
2021/07/07 10:36:56;;;;;;;6.55;1.70;;;25.20;95.40;;;;;;5069600;28;20028;-67
2021/07/07 10:39:23;;;;;;;3.35;0.73;;;25.10;95.80;;;;;;5071661;28;20029;-54
2021/07/07 10:41:53;;;;;;;4.32;1.40;;;24.90;94.60;;;;;;5072401;28;20028;-55
2021/07/07 10:44:24;;;;;;;2.20;0.68;;;25.00;94.00;;;;;;5070409;28;20029;-54
2021/07/07 10:46:59;;;;;;;4.25;1.35;;;24.90;94.20;;;;;;5071368;28;20060;-58
2021/07/07 10:49:30;;;;;;;2.65;0.95;;;25.30;93.70;;;;;;5071405;28;20032;-56
2021/07/07 10:52:10;;;;;;;6.13;1.52;;;25.40;93.30;;;;;;5072001;28;20086;-69
2021/07/07 10:54:41;;;;;;;6.20;1.03;;;25.00;93.70;;;;;;5072512;28;20779;-55
2021/07/07 10:57:09;;;;;;;4.70;1.20;;;24.70;95.10;;;;;;5070093;28;20029;-57
2021/07/07 10:59:48;;;;;;;6.57;1.27;;;24.60;94.60;;;;;;5081758;28;20036;-55
2021/07/07 11:02:26;;;;;;;8.40;1.25;;;24.60;94.60;;;;;;5091417;28;20499;-56
2021/07/07 11:04:56;;;;;;;4.05;0.80;;;24.30;94.40;;;;;;5091824;28;20059;-57
2021/07/07 11:07:51;;;;;;;2.63;1.35;;;24.50;94.90;;;;;;5092495;28;20081;-54
2021/07/07 11:10:22;;;;;;;6.55;0.90;;;25.00;93.90;;;;;;4992932;28;20030;-58
2021/07/07 11:12:56;;;;;;;2.15;0.55;;;25.40;94.20;;;;;;5009964;28;20052;-55
2021/07/07 11:15:24;;;;;;;4.45;1.00;;;25.40;94.20;;;;;;5010108;28;20460;-53
2021/07/07 11:17:58;;;;;;;3.92;1.23;;;25.20;93.10;;;;;;4993522;28;20042;-54
2021/07/07 11:20:26;;;;;;;5.38;1.70;;;25.10;93.80;;;;;;4989348;28;20411;-55
2021/07/07 11:23:05;;;;;;;3.55;1.20;;;25.30;93.30;;;;;;4990534;28;20118;-55
2021/07/07 11:25:32;;;;;;;4.63;0.80;;;25.40;92.90;;;;;;4974454;28;20078;-57
2021/07/07 11:28:05;;;;;;;3.22;1.20;;;25.70;92.80;;;;;;4989782;28;20034;-70
2021/07/07 11:30:31;;;;;;;4.32;0.88;;;25.80;92.60;;;;;;4989897;28;20030;-55
2021/07/07 11:33:02;;;;;;;8.00;1.13;;;25.90;92.40;;;;;;4989928;28;20153;-68
2021/07/07 11:35:31;;;;;;;3.38;0.90;;;26.00;91.70;;;;;;5000310;28;20619;-58
2021/07/07 11:38:02;;;;;;;4.88;1.35;;;26.50;91.40;;;;;;4982117;28;20092;-68
2021/07/07 11:40:32;;;;;;;5.25;0.93;;;26.90;90.90;;;;;;5009805;28;20052;-55
2021/07/07 11:42:59;;;;;;;3.55;1.00;;;27.00;90.70;;;;;;5008745;28;20034;-69
2021/07/07 11:45:35;;;;;;;5.30;0.93;;;26.80;90.50;;;;;;5007954;28;20471;-62
2021/07/07 11:51:14;;;;;;;7.22;1.65;;;26.30;90.00;;;;;;5070586;28;20051;-53
2021/07/07 11:53:55;;;;;;;5.90;1.05;;;26.40;90.50;;;;;;5070784;28;20024;-55
2021/07/07 11:56:25;;;;;;;2.63;0.55;;;26.60;90.60;;;;;;5069938;28;20032;-53
2021/07/07 11:58:58;;;;;;;7.28;1.25;;;26.50;90.10;;;;;;5070086;28;20032;-57
2021/07/07 12:01:43;;;;;;;3.80;0.60;;;26.40;90.90;;;;;;5069350;28;20028;-54
2021/07/07 12:04:12;;;;;;;4.75;1.10;;;26.00;88.80;;;;;;5083622;28;20744;-68
2021/07/07 12:06:43;;;;;;;3.95;1.08;;;25.30;90.70;;;;;;5085463;28;20406;-54
2021/07/07 12:09:16;;;;;;;;;;;25.20;91.40;;;;;;5069832;28;20040;-56
2021/07/07 12:12:00;;;;;;;2.25;0.80;;;25.70;90.70;;;;;;5068508;28;19923;-69
2021/07/07 12:14:29;;;;;;;3.75;0.90;;;26.00;90.60;;;;;;5051764;28;20024;-54
2021/07/07 12:16:55;;;;;;;8.82;1.75;;;25.90;90.50;;;;;;5068744;28;20134;-56
2021/07/07 12:19:22;;;;;;;8.45;1.63;;;25.80;90.50;;;;;;5066579;28;20219;-55
2021/07/07 12:21:49;;;;;;;3.92;1.33;;;25.40;91.70;;;;;;5076654;28;20080;-55
2021/07/07 12:24:19;;;;;;;6.43;1.25;;;25.40;91.10;;;;;;5081054;28;20044;-55
2021/07/07 12:26:54;;;;;;;4.97;0.95;;;25.80;89.30;;;;;;5070067;28;20039;-57
2021/07/07 12:29:30;;;;;;;4.32;1.13;;;26.20;85.80;;;;;;5062343;28;20462;-55
2021/07/07 12:32:02;;;;;;;4.35;0.95;;;26.70;84.60;;;;;;5039565;28;20029;-67
2021/07/07 12:34:40;;;;;;;2.10;0.52;;;26.90;84.10;;;;;;5032184;28;20066;-55
2021/07/07 12:37:10;;;;;;;3.75;1.15;;;27.10;82.20;;;;;;5024319;28;20040;-53
2021/07/07 12:39:59;;;;;;;3.90;0.70;;;27.00;82.00;;;;;;5048723;28;20123;-56
2021/07/07 12:42:35;;;;;;;2.47;0.90;;;27.10;81.80;;;;;;5049922;28;20120;-62
2021/07/07 12:45:11;;;;;;;4.15;0.80;;;27.40;82.20;;;;;;5047933;28;20101;-64
2021/07/07 12:47:37;;;;;;;6.18;1.20;;;27.40;81.60;;;;;;5044138;28;20036;-54
2021/07/07 12:50:17;;;;;;;1.98;0.93;;;27.50;79.70;;;;;;5048588;28;20382;-56
2021/07/07 12:52:45;;;;;;;4.20;1.27;;;27.40;77.50;;;;;;5032427;28;20075;-56
2021/07/07 12:55:19;;;;;;;3.75;0.88;;;27.40;74.90;;;;;;5049091;28;20776;-55